Rainbow Lake, New York
Current Conditions -  °F | °C
As of 3:05 AM on Saturday 25 Oct 2014 (Local Time) from KSLK Reporting Station
Haze Haze  
Wind Chill: 26°   Ceiling: 400
Heat Index: 33°   Visibility: 2mi
Dew Point: 32°   Wind: 8mph
Humidity: 96%   Direction: 210°SSW
Pressure: 29.79"   Gusts: NA
Location:  44.47°N, 74.17°W
Report Text: KSLK 250705Z AUTO 21007KT 2SM BR BKN004 01/00 A2979 RMK AO2 T00060000
Loading
Personal Weather Stations






























Interactive Weather Map
Tropical Storm Tracking
New forecast layout! Learn more

10-Day Weather Forecast

Advertisements
Track Severe Weather on mobile